sensor_id;sensor_type;location;lat;lon;timestamp;P1;durP1;ratioP1;P2;durP2;ratioP2
21593;SDS011;10959;51.328;7.322;2023-06-22T00:02:14;5.50;;;3.80;;
21593;SDS011;10959;51.328;7.322;2023-06-22T00:04:41;4.40;;;3.78;;
21593;SDS011;10959;51.328;7.322;2023-06-22T00:07:07;4.88;;;4.45;;
21593;SDS011;10959;51.328;7.322;2023-06-22T00:09:34;5.63;;;3.67;;
21593;SDS011;10959;51.328;7.322;2023-06-22T00:12:02;4.05;;;3.60;;
21593;SDS011;10959;51.328;7.322;2023-06-22T00:14:31;3.63;;;3.33;;
21593;SDS011;10959;51.328;7.322;2023-06-22T00:16:57;4.00;;;3.70;;
21593;SDS011;10959;51.328;7.322;2023-06-22T00:19:24;4.68;;;4.28;;
21593;SDS011;10959;51.328;7.322;2023-06-22T00:21:51;5.30;;;3.88;;
21593;SDS011;10959;51.328;7.322;2023-06-22T00:24:18;4.15;;;3.80;;
21593;SDS011;10959;51.328;7.322;2023-06-22T00:26:45;4.03;;;3.72;;
21593;SDS011;10959;51.328;7.322;2023-06-22T00:29:13;4.18;;;3.78;;
21593;SDS011;10959;51.328;7.322;2023-06-22T00:31:41;6.00;;;4.40;;
21593;SDS011;10959;51.328;7.322;2023-06-22T00:34:08;4.07;;;3.60;;
21593;SDS011;10959;51.328;7.322;2023-06-22T00:36:35;5.82;;;3.90;;
21593;SDS011;10959;51.328;7.322;2023-06-22T00:39:02;4.72;;;3.78;;
21593;SDS011;10959;51.328;7.322;2023-06-22T00:41:29;4.53;;;4.13;;
21593;SDS011;10959;51.328;7.322;2023-06-22T00:43:55;4.32;;;3.92;;
21593;SDS011;10959;51.328;7.322;2023-06-22T00:46:22;4.32;;;3.75;;
21593;SDS011;10959;51.328;7.322;2023-06-22T00:48:50;4.45;;;3.25;;
21593;SDS011;10959;51.328;7.322;2023-06-22T00:51:22;4.13;;;3.72;;
21593;SDS011;10959;51.328;7.322;2023-06-22T00:53:49;5.30;;;3.78;;
21593;SDS011;10959;51.328;7.322;2023-06-22T00:56:16;5.82;;;4.32;;
21593;SDS011;10959;51.328;7.322;2023-06-22T00:58:44;4.80;;;3.38;;
21593;SDS011;10959;51.328;7.322;2023-06-22T01:01:12;4.55;;;3.53;;
21593;SDS011;10959;51.328;7.322;2023-06-22T01:03:39;3.53;;;3.15;;
21593;SDS011;10959;51.328;7.322;2023-06-22T01:06:08;4.07;;;3.67;;
21593;SDS011;10959;51.328;7.322;2023-06-22T01:08:42;3.65;;;3.35;;
21593;SDS011;10959;51.328;7.322;2023-06-22T01:11:16;5.13;;;3.80;;
21593;SDS011;10959;51.328;7.322;2023-06-22T01:13:49;4.45;;;4.00;;
21593;SDS011;10959;51.328;7.322;2023-06-22T01:16:23;5.20;;;4.22;;
21593;SDS011;10959;51.328;7.322;2023-06-22T01:18:54;5.43;;;4.65;;
21593;SDS011;10959;51.328;7.322;2023-06-22T01:21:25;4.93;;;4.07;;
21593;SDS011;10959;51.328;7.322;2023-06-22T01:23:58;6.50;;;4.35;;
21593;SDS011;10959;51.328;7.322;2023-06-22T01:26:37;4.53;;;3.95;;
21593;SDS011;10959;51.328;7.322;2023-06-22T01:29:09;5.07;;;4.05;;
21593;SDS011;10959;51.328;7.322;2023-06-22T01:31:38;7.20;;;4.20;;
21593;SDS011;10959;51.328;7.322;2023-06-22T01:34:07;7.53;;;4.72;;
21593;SDS011;10959;51.328;7.322;2023-06-22T01:36:35;6.05;;;4.32;;
21593;SDS011;10959;51.328;7.322;2023-06-22T01:39:03;4.97;;;4.30;;
21593;SDS011;10959;51.328;7.322;2023-06-22T01:41:34;5.35;;;4.85;;
21593;SDS011;10959;51.328;7.322;2023-06-22T01:44:02;6.13;;;4.85;;
21593;SDS011;10959;51.328;7.322;2023-06-22T01:46:32;6.25;;;5.18;;
21593;SDS011;10959;51.328;7.322;2023-06-22T01:49:00;5.75;;;5.15;;
21593;SDS011;10959;51.328;7.322;2023-06-22T01:51:28;6.70;;;6.10;;
21593;SDS011;10959;51.328;7.322;2023-06-22T01:53:54;5.90;;;5.35;;
21593;SDS011;10959;51.328;7.322;2023-06-22T01:56:20;5.88;;;5.22;;
21593;SDS011;10959;51.328;7.322;2023-06-22T01:58:48;5.85;;;5.35;;
21593;SDS011;10959;51.328;7.322;2023-06-22T02:01:22;6.32;;;4.72;;
21593;SDS011;10959;51.328;7.322;2023-06-22T02:04:03;5.55;;;4.90;;
21593;SDS011;10959;51.328;7.322;2023-06-22T02:06:33;4.72;;;4.32;;
21593;SDS011;10959;51.328;7.322;2023-06-22T02:09:03;6.05;;;5.45;;
21593;SDS011;10959;51.328;7.322;2023-06-22T02:11:35;7.80;;;5.38;;
21593;SDS011;10959;51.328;7.322;2023-06-22T02:14:03;6.65;;;5.18;;
21593;SDS011;10959;51.328;7.322;2023-06-22T02:16:31;6.53;;;4.35;;
21593;SDS011;10959;51.328;7.322;2023-06-22T02:19:00;6.35;;;4.47;;
21593;SDS011;10959;51.328;7.322;2023-06-22T02:21:28;5.75;;;5.15;;
21593;SDS011;10959;51.328;7.322;2023-06-22T02:23:55;8.85;;;5.70;;
21593;SDS011;10959;51.328;7.322;2023-06-22T02:26:21;5.57;;;4.85;;
21593;SDS011;10959;51.328;7.322;2023-06-22T02:28:49;6.25;;;5.47;;
21593;SDS011;10959;51.328;7.322;2023-06-22T02:31:16;6.78;;;5.32;;
21593;SDS011;10959;51.328;7.322;2023-06-22T02:33:42;6.32;;;4.80;;
21593;SDS011;10959;51.328;7.322;2023-06-22T02:36:11;5.13;;;4.70;;
21593;SDS011;10959;51.328;7.322;2023-06-22T02:38:38;5.13;;;4.65;;
21593;SDS011;10959;51.328;7.322;2023-06-22T02:41:04;6.47;;;4.70;;
21593;SDS011;10959;51.328;7.322;2023-06-22T02:43:31;6.00;;;5.20;;
21593;SDS011;10959;51.328;7.322;2023-06-22T02:45:58;7.20;;;5.32;;
21593;SDS011;10959;51.328;7.322;2023-06-22T02:48:24;6.60;;;5.90;;
21593;SDS011;10959;51.328;7.322;2023-06-22T02:50:53;6.22;;;5.57;;
21593;SDS011;10959;51.328;7.322;2023-06-22T02:53:22;6.38;;;5.78;;
21593;SDS011;10959;51.328;7.322;2023-06-22T02:55:50;7.10;;;5.30;;
21593;SDS011;10959;51.328;7.322;2023-06-22T02:58:18;6.25;;;5.15;;
21593;SDS011;10959;51.328;7.322;2023-06-22T03:00:50;6.32;;;4.70;;
21593;SDS011;10959;51.328;7.322;2023-06-22T03:03:17;5.20;;;4.70;;
21593;SDS011;10959;51.328;7.322;2023-06-22T03:05:47;5.07;;;4.57;;
21593;SDS011;10959;51.328;7.322;2023-06-22T03:08:13;5.07;;;4.57;;
21593;SDS011;10959;51.328;7.322;2023-06-22T03:10:41;5.25;;;4.68;;
21593;SDS011;10959;51.328;7.322;2023-06-22T03:13:08;8.70;;;5.78;;
21593;SDS011;10959;51.328;7.322;2023-06-22T03:15:34;6.53;;;5.10;;
21593;SDS011;10959;51.328;7.322;2023-06-22T03:18:01;7.30;;;5.38;;
21593;SDS011;10959;51.328;7.322;2023-06-22T03:20:28;7.32;;;5.38;;
21593;SDS011;10959;51.328;7.322;2023-06-22T03:22:58;6.18;;;5.25;;
21593;SDS011;10959;51.328;7.322;2023-06-22T03:25:25;5.00;;;4.53;;
21593;SDS011;10959;51.328;7.322;2023-06-22T03:27:53;8.35;;;5.35;;
21593;SDS011;10959;51.328;7.322;2023-06-22T03:30:20;6.90;;;4.40;;
21593;SDS011;10959;51.328;7.322;2023-06-22T03:32:46;7.95;;;5.28;;
21593;SDS011;10959;51.328;7.322;2023-06-22T03:35:12;5.57;;;4.93;;
21593;SDS011;10959;51.328;7.322;2023-06-22T03:37:39;6.57;;;5.97;;
21593;SDS011;10959;51.328;7.322;2023-06-22T03:40:06;7.57;;;6.03;;
21593;SDS011;10959;51.328;7.322;2023-06-22T03:42:33;7.28;;;6.65;;
21593;SDS011;10959;51.328;7.322;2023-06-22T03:45:02;8.13;;;7.32;;
21593;SDS011;10959;51.328;7.322;2023-06-22T03:47:29;7.50;;;6.68;;
21593;SDS011;10959;51.328;7.322;2023-06-22T03:49:56;7.22;;;5.90;;
21593;SDS011;10959;51.328;7.322;2023-06-22T03:52:22;7.00;;;6.05;;
21593;SDS011;10959;51.328;7.322;2023-06-22T03:54:50;5.72;;;5.22;;
21593;SDS011;10959;51.328;7.322;2023-06-22T03:57:16;8.15;;;6.95;;
21593;SDS011;10959;51.328;7.322;2023-06-22T03:59:43;7.05;;;6.45;;
21593;SDS011;10959;51.328;7.322;2023-06-22T04:02:11;7.75;;;6.50;;
21593;SDS011;10959;51.328;7.322;2023-06-22T04:04:37;6.90;;;6.20;;
21593;SDS011;10959;51.328;7.322;2023-06-22T04:07:04;7.32;;;6.35;;
21593;SDS011;10959;51.328;7.322;2023-06-22T04:09:31;12.20;;;7.68;;
21593;SDS011;10959;51.328;7.322;2023-06-22T04:11:57;9.00;;;8.15;;
21593;SDS011;10959;51.328;7.322;2023-06-22T04:14:24;8.63;;;7.88;;
21593;SDS011;10959;51.328;7.322;2023-06-22T04:16:51;8.60;;;7.82;;
21593;SDS011;10959;51.328;7.322;2023-06-22T04:19:19;9.40;;;8.50;;
21593;SDS011;10959;51.328;7.322;2023-06-22T04:21:45;8.63;;;7.72;;
21593;SDS011;10959;51.328;7.322;2023-06-22T04:24:13;8.75;;;7.90;;
21593;SDS011;10959;51.328;7.322;2023-06-22T04:26:40;9.38;;;8.48;;
21593;SDS011;10959;51.328;7.322;2023-06-22T04:29:07;9.20;;;8.45;;
21593;SDS011;10959;51.328;7.322;2023-06-22T04:31:34;9.32;;;8.43;;
21593;SDS011;10959;51.328;7.322;2023-06-22T04:34:02;8.55;;;7.75;;
21593;SDS011;10959;51.328;7.322;2023-06-22T04:36:33;9.57;;;8.40;;
21593;SDS011;10959;51.328;7.322;2023-06-22T04:39:03;9.07;;;8.20;;
21593;SDS011;10959;51.328;7.322;2023-06-22T04:41:30;8.77;;;7.97;;
21593;SDS011;10959;51.328;7.322;2023-06-22T04:44:06;10.13;;;8.00;;
21593;SDS011;10959;51.328;7.322;2023-06-22T04:46:34;9.00;;;8.07;;
21593;SDS011;10959;51.328;7.322;2023-06-22T04:49:06;10.23;;;8.70;;
21593;SDS011;10959;51.328;7.322;2023-06-22T04:51:39;9.90;;;8.13;;
21593;SDS011;10959;51.328;7.322;2023-06-22T04:54:06;9.35;;;8.48;;
21593;SDS011;10959;51.328;7.322;2023-06-22T04:56:34;8.65;;;7.75;;
21593;SDS011;10959;51.328;7.322;2023-06-22T04:59:01;8.00;;;7.20;;
21593;SDS011;10959;51.328;7.322;2023-06-22T05:01:28;8.65;;;7.68;;
21593;SDS011;10959;51.328;7.322;2023-06-22T05:03:55;8.20;;;7.32;;
21593;SDS011;10959;51.328;7.322;2023-06-22T05:06:23;9.60;;;8.68;;
21593;SDS011;10959;51.328;7.322;2023-06-22T05:08:52;9.57;;;8.20;;
21593;SDS011;10959;51.328;7.322;2023-06-22T05:11:22;9.52;;;8.43;;
21593;SDS011;10959;51.328;7.322;2023-06-22T05:13:48;10.05;;;9.02;;
21593;SDS011;10959;51.328;7.322;2023-06-22T05:16:15;11.95;;;9.80;;
21593;SDS011;10959;51.328;7.322;2023-06-22T05:18:41;10.35;;;9.02;;
21593;SDS011;10959;51.328;7.322;2023-06-22T05:21:08;10.52;;;9.07;;
21593;SDS011;10959;51.328;7.322;2023-06-22T05:23:35;10.13;;;8.95;;
21593;SDS011;10959;51.328;7.322;2023-06-22T05:26:02;10.48;;;9.32;;
21593;SDS011;10959;51.328;7.322;2023-06-22T05:28:29;10.13;;;9.13;;
21593;SDS011;10959;51.328;7.322;2023-06-22T05:30:56;8.93;;;8.02;;
21593;SDS011;10959;51.328;7.322;2023-06-22T05:33:22;9.18;;;8.27;;
21593;SDS011;10959;51.328;7.322;2023-06-22T05:35:48;7.45;;;6.75;;
21593;SDS011;10959;51.328;7.322;2023-06-22T05:38:15;9.27;;;8.23;;
21593;SDS011;10959;51.328;7.322;2023-06-22T05:40:41;9.70;;;8.73;;
21593;SDS011;10959;51.328;7.322;2023-06-22T05:43:09;8.90;;;8.00;;
21593;SDS011;10959;51.328;7.322;2023-06-22T05:45:35;9.52;;;8.55;;
21593;SDS011;10959;51.328;7.322;2023-06-22T05:48:02;10.52;;;7.63;;
21593;SDS011;10959;51.328;7.322;2023-06-22T05:50:28;10.75;;;8.20;;
21593;SDS011;10959;51.328;7.322;2023-06-22T05:52:55;8.25;;;7.45;;
21593;SDS011;10959;51.328;7.322;2023-06-22T05:55:21;10.50;;;7.68;;
21593;SDS011;10959;51.328;7.322;2023-06-22T05:57:47;8.98;;;8.00;;
21593;SDS011;10959;51.328;7.322;2023-06-22T06:00:16;10.35;;;8.48;;
21593;SDS011;10959;51.328;7.322;2023-06-22T06:02:43;9.43;;;8.50;;
21593;SDS011;10959;51.328;7.322;2023-06-22T06:05:10;8.15;;;7.30;;
21593;SDS011;10959;51.328;7.322;2023-06-22T06:07:38;7.97;;;7.25;;
21593;SDS011;10959;51.328;7.322;2023-06-22T06:10:05;9.55;;;8.65;;
21593;SDS011;10959;51.328;7.322;2023-06-22T06:12:33;10.88;;;8.05;;
21593;SDS011;10959;51.328;7.322;2023-06-22T06:14:59;8.85;;;7.53;;
21593;SDS011;10959;51.328;7.322;2023-06-22T06:17:27;9.90;;;8.98;;
21593;SDS011;10959;51.328;7.322;2023-06-22T06:19:53;9.05;;;8.20;;
21593;SDS011;10959;51.328;7.322;2023-06-22T06:22:20;8.73;;;7.93;;
21593;SDS011;10959;51.328;7.322;2023-06-22T06:24:48;11.00;;;9.32;;
21593;SDS011;10959;51.328;7.322;2023-06-22T06:27:15;9.75;;;8.85;;
21593;SDS011;10959;51.328;7.322;2023-06-22T06:29:43;8.85;;;7.35;;
21593;SDS011;10959;51.328;7.322;2023-06-22T06:32:10;8.85;;;7.97;;
21593;SDS011;10959;51.328;7.322;2023-06-22T06:34:38;9.60;;;8.63;;
21593;SDS011;10959;51.328;7.322;2023-06-22T06:37:05;10.77;;;9.77;;
21593;SDS011;10959;51.328;7.322;2023-06-22T06:39:32;11.15;;;9.82;;
21593;SDS011;10959;51.328;7.322;2023-06-22T06:41:58;12.88;;;9.23;;
21593;SDS011;10959;51.328;7.322;2023-06-22T06:44:24;9.02;;;8.13;;
21593;SDS011;10959;51.328;7.322;2023-06-22T06:46:51;10.48;;;9.48;;
21593;SDS011;10959;51.328;7.322;2023-06-22T06:49:19;12.40;;;10.75;;
21593;SDS011;10959;51.328;7.322;2023-06-22T06:51:47;9.27;;;8.30;;
21593;SDS011;10959;51.328;7.322;2023-06-22T06:54:13;10.65;;;8.88;;
21593;SDS011;10959;51.328;7.322;2023-06-22T06:56:40;11.82;;;9.65;;
21593;SDS011;10959;51.328;7.322;2023-06-22T06:59:13;13.50;;;9.88;;
21593;SDS011;10959;51.328;7.322;2023-06-22T07:01:39;10.07;;;9.18;;
21593;SDS011;10959;51.328;7.322;2023-06-22T07:04:06;14.70;;;9.63;;
21593;SDS011;10959;51.328;7.322;2023-06-22T07:06:32;11.10;;;10.10;;
21593;SDS011;10959;51.328;7.322;2023-06-22T07:09:00;10.98;;;9.93;;
21593;SDS011;10959;51.328;7.322;2023-06-22T07:11:27;12.13;;;11.02;;
21593;SDS011;10959;51.328;7.322;2023-06-22T07:13:53;11.63;;;10.27;;
21593;SDS011;10959;51.328;7.322;2023-06-22T07:16:19;10.65;;;9.68;;
21593;SDS011;10959;51.328;7.322;2023-06-22T07:18:46;11.20;;;10.10;;
21593;SDS011;10959;51.328;7.322;2023-06-22T07:21:12;10.95;;;9.82;;
21593;SDS011;10959;51.328;7.322;2023-06-22T07:23:38;11.52;;;10.32;;
21593;SDS011;10959;51.328;7.322;2023-06-22T07:26:06;11.68;;;10.38;;
21593;SDS011;10959;51.328;7.322;2023-06-22T07:28:33;11.65;;;9.82;;
21593;SDS011;10959;51.328;7.322;2023-06-22T07:31:02;11.55;;;10.55;;
21593;SDS011;10959;51.328;7.322;2023-06-22T07:33:29;11.02;;;9.93;;
21593;SDS011;10959;51.328;7.322;2023-06-22T07:35:55;11.43;;;10.25;;
21593;SDS011;10959;51.328;7.322;2023-06-22T07:38:21;10.13;;;9.13;;
21593;SDS011;10959;51.328;7.322;2023-06-22T07:40:48;10.13;;;9.23;;
21593;SDS011;10959;51.328;7.322;2023-06-22T07:43:17;10.63;;;9.43;;
21593;SDS011;10959;51.328;7.322;2023-06-22T07:45:47;10.82;;;9.50;;
21593;SDS011;10959;51.328;7.322;2023-06-22T07:48:17;10.40;;;9.43;;
21593;SDS011;10959;51.328;7.322;2023-06-22T07:50:43;12.27;;;11.07;;
21593;SDS011;10959;51.328;7.322;2023-06-22T07:53:09;11.30;;;10.30;;
21593;SDS011;10959;51.328;7.322;2023-06-22T07:55:36;11.13;;;10.02;;
21593;SDS011;10959;51.328;7.322;2023-06-22T07:58:02;10.40;;;9.43;;
21593;SDS011;10959;51.328;7.322;2023-06-22T08:00:30;11.70;;;10.50;;
21593;SDS011;10959;51.328;7.322;2023-06-22T08:02:58;11.30;;;10.25;;
21593;SDS011;10959;51.328;7.322;2023-06-22T08:05:24;13.77;;;12.48;;
21593;SDS011;10959;51.328;7.322;2023-06-22T08:07:51;12.10;;;11.00;;
21593;SDS011;10959;51.328;7.322;2023-06-22T08:10:18;12.55;;;11.38;;
21593;SDS011;10959;51.328;7.322;2023-06-22T08:12:45;12.75;;;11.43;;
21593;SDS011;10959;51.328;7.322;2023-06-22T08:15:11;11.32;;;10.32;;
21593;SDS011;10959;51.328;7.322;2023-06-22T08:17:39;12.55;;;11.15;;
21593;SDS011;10959;51.328;7.322;2023-06-22T08:20:06;11.18;;;10.10;;
21593;SDS011;10959;51.328;7.322;2023-06-22T08:22:36;31.40;;;13.75;;
21593;SDS011;10959;51.328;7.322;2023-06-22T08:25:03;11.77;;;10.57;;
21593;SDS011;10959;51.328;7.322;2023-06-22T08:27:31;11.85;;;10.25;;
21593;SDS011;10959;51.328;7.322;2023-06-22T08:29:58;15.27;;;12.00;;
21593;SDS011;10959;51.328;7.322;2023-06-22T08:32:25;9.85;;;9.02;;
21593;SDS011;10959;51.328;7.322;2023-06-22T08:34:53;14.15;;;10.18;;
21593;SDS011;10959;51.328;7.322;2023-06-22T08:37:19;11.48;;;9.32;;
21593;SDS011;10959;51.328;7.322;2023-06-22T08:39:48;10.35;;;9.35;;
21593;SDS011;10959;51.328;7.322;2023-06-22T08:42:15;11.10;;;10.05;;
21593;SDS011;10959;51.328;7.322;2023-06-22T08:44:41;12.00;;;10.90;;
21593;SDS011;10959;51.328;7.322;2023-06-22T08:47:08;9.57;;;8.65;;
21593;SDS011;10959;51.328;7.322;2023-06-22T08:49:34;12.45;;;11.32;;
21593;SDS011;10959;51.328;7.322;2023-06-22T08:52:02;10.93;;;9.93;;
21593;SDS011;10959;51.328;7.322;2023-06-22T08:54:29;10.13;;;9.30;;
21593;SDS011;10959;51.328;7.322;2023-06-22T08:56:59;12.18;;;10.68;;
21593;SDS011;10959;51.328;7.322;2023-06-22T08:59:26;11.38;;;10.43;;
21593;SDS011;10959;51.328;7.322;2023-06-22T09:01:52;10.45;;;9.55;;
21593;SDS011;10959;51.328;7.322;2023-06-22T09:04:18;11.60;;;10.38;;
21593;SDS011;10959;51.328;7.322;2023-06-22T09:06:47;10.68;;;9.77;;
21593;SDS011;10959;51.328;7.322;2023-06-22T09:09:16;10.15;;;8.68;;
21593;SDS011;10959;51.328;7.322;2023-06-22T09:11:42;11.55;;;10.57;;
21593;SDS011;10959;51.328;7.322;2023-06-22T09:14:09;10.57;;;9.43;;
21593;SDS011;10959;51.328;7.322;2023-06-22T09:16:36;9.40;;;8.55;;
21593;SDS011;10959;51.328;7.322;2023-06-22T09:19:02;10.18;;;9.27;;
21593;SDS011;10959;51.328;7.322;2023-06-22T09:21:29;7.40;;;6.65;;
21593;SDS011;10959;51.328;7.322;2023-06-22T09:23:56;8.30;;;7.50;;
21593;SDS011;10959;51.328;7.322;2023-06-22T09:26:23;8.50;;;7.30;;
21593;SDS011;10959;51.328;7.322;2023-06-22T09:28:50;6.30;;;5.78;;
21593;SDS011;10959;51.328;7.322;2023-06-22T09:31:16;7.50;;;6.88;;
21593;SDS011;10959;51.328;7.322;2023-06-22T09:33:46;7.40;;;6.55;;
21593;SDS011;10959;51.328;7.322;2023-06-22T09:36:13;7.45;;;6.82;;
21593;SDS011;10959;51.328;7.322;2023-06-22T09:38:41;7.18;;;6.53;;
21593;SDS011;10959;51.328;7.322;2023-06-22T09:41:08;7.95;;;7.25;;
21593;SDS011;10959;51.328;7.322;2023-06-22T09:43:36;9.38;;;8.57;;
21593;SDS011;10959;51.328;7.322;2023-06-22T09:46:02;8.70;;;7.95;;
21593;SDS011;10959;51.328;7.322;2023-06-22T09:48:29;9.35;;;8.38;;
21593;SDS011;10959;51.328;7.322;2023-06-22T09:50:55;9.70;;;8.25;;
21593;SDS011;10959;51.328;7.322;2023-06-22T09:53:22;10.65;;;9.75;;
21593;SDS011;10959;51.328;7.322;2023-06-22T09:55:48;10.27;;;9.38;;
21593;SDS011;10959;51.328;7.322;2023-06-22T09:58:15;9.75;;;8.82;;
21593;SDS011;10959;51.328;7.322;2023-06-22T10:00:43;10.10;;;9.30;;
21593;SDS011;10959;51.328;7.322;2023-06-22T10:03:09;9.98;;;8.98;;
21593;SDS011;10959;51.328;7.322;2023-06-22T10:05:36;9.05;;;8.25;;
21593;SDS011;10959;51.328;7.322;2023-06-22T10:08:02;9.50;;;8.48;;
21593;SDS011;10959;51.328;7.322;2023-06-22T10:10:29;7.72;;;7.03;;
21593;SDS011;10959;51.328;7.322;2023-06-22T10:12:56;8.98;;;8.18;;
21593;SDS011;10959;51.328;7.322;2023-06-22T10:15:24;7.50;;;6.90;;
21593;SDS011;10959;51.328;7.322;2023-06-22T10:17:53;8.57;;;7.38;;
21593;SDS011;10959;51.328;7.322;2023-06-22T10:20:19;7.55;;;6.95;;
21593;SDS011;10959;51.328;7.322;2023-06-22T10:22:47;8.00;;;7.20;;
21593;SDS011;10959;51.328;7.322;2023-06-22T10:25:13;9.38;;;7.45;;
21593;SDS011;10959;51.328;7.322;2023-06-22T10:27:40;9.05;;;8.05;;
21593;SDS011;10959;51.328;7.322;2023-06-22T10:30:07;7.88;;;7.13;;
21593;SDS011;10959;51.328;7.322;2023-06-22T10:32:34;8.13;;;7.15;;
21593;SDS011;10959;51.328;7.322;2023-06-22T10:35:02;7.32;;;6.63;;
21593;SDS011;10959;51.328;7.322;2023-06-22T10:37:29;8.07;;;7.38;;
21593;SDS011;10959;51.328;7.322;2023-06-22T10:39:55;7.55;;;6.78;;
21593;SDS011;10959;51.328;7.322;2023-06-22T10:42:22;8.32;;;7.32;;
21593;SDS011;10959;51.328;7.322;2023-06-22T10:44:49;8.10;;;7.30;;
21593;SDS011;10959;51.328;7.322;2023-06-22T10:47:15;8.20;;;7.43;;
21593;SDS011;10959;51.328;7.322;2023-06-22T10:49:42;8.82;;;8.02;;
21593;SDS011;10959;51.328;7.322;2023-06-22T10:52:10;8.60;;;7.75;;
21593;SDS011;10959;51.328;7.322;2023-06-22T10:54:36;8.43;;;7.70;;
21593;SDS011;10959;51.328;7.322;2023-06-22T10:57:04;9.20;;;8.30;;
21593;SDS011;10959;51.328;7.322;2023-06-22T10:59:31;10.82;;;7.85;;
21593;SDS011;10959;51.328;7.322;2023-06-22T11:01:57;9.55;;;8.50;;
21593;SDS011;10959;51.328;7.322;2023-06-22T11:04:24;11.27;;;8.48;;
21593;SDS011;10959;51.328;7.322;2023-06-22T11:06:51;10.20;;;8.93;;
21593;SDS011;10959;51.328;7.322;2023-06-22T11:09:18;9.88;;;8.95;;
21593;SDS011;10959;51.328;7.322;2023-06-22T11:11:46;9.98;;;8.43;;
21593;SDS011;10959;51.328;7.322;2023-06-22T11:14:13;11.15;;;10.05;;
21593;SDS011;10959;51.328;7.322;2023-06-22T11:16:39;10.23;;;9.32;;
21593;SDS011;10959;51.328;7.322;2023-06-22T11:19:05;12.27;;;11.18;;
21593;SDS011;10959;51.328;7.322;2023-06-22T11:21:32;12.07;;;10.73;;
21593;SDS011;10959;51.328;7.322;2023-06-22T11:23:59;10.32;;;9.45;;
21593;SDS011;10959;51.328;7.322;2023-06-22T11:26:27;9.90;;;8.90;;
21593;SDS011;10959;51.328;7.322;2023-06-22T11:28:53;10.23;;;9.38;;
21593;SDS011;10959;51.328;7.322;2023-06-22T11:31:20;12.13;;;11.02;;
21593;SDS011;10959;51.328;7.322;2023-06-22T11:33:47;11.60;;;10.30;;
21593;SDS011;10959;51.328;7.322;2023-06-22T11:36:14;11.82;;;10.57;;
21593;SDS011;10959;51.328;7.322;2023-06-22T11:38:41;14.52;;;11.30;;
21593;SDS011;10959;51.328;7.322;2023-06-22T11:41:08;14.15;;;10.90;;
21593;SDS011;10959;51.328;7.322;2023-06-22T11:43:37;15.13;;;11.45;;
21593;SDS011;10959;51.328;7.322;2023-06-22T11:46:04;14.15;;;12.65;;
21593;SDS011;10959;51.328;7.322;2023-06-22T11:48:30;12.60;;;11.40;;
21593;SDS011;10959;51.328;7.322;2023-06-22T11:50:57;12.02;;;10.82;;
21593;SDS011;10959;51.328;7.322;2023-06-22T11:53:24;13.55;;;11.90;;
21593;SDS011;10959;51.328;7.322;2023-06-22T11:55:52;12.10;;;10.90;;
21593;SDS011;10959;51.328;7.322;2023-06-22T11:58:19;11.63;;;10.52;;
21593;SDS011;10959;51.328;7.322;2023-06-22T12:00:47;13.68;;;10.88;;
21593;SDS011;10959;51.328;7.322;2023-06-22T12:03:14;12.00;;;10.90;;
21593;SDS011;10959;51.328;7.322;2023-06-22T12:05:41;15.60;;;12.90;;
21593;SDS011;10959;51.328;7.322;2023-06-22T12:08:08;14.05;;;11.73;;
21593;SDS011;10959;51.328;7.322;2023-06-22T12:10:35;14.43;;;12.98;;
21593;SDS011;10959;51.328;7.322;2023-06-22T12:13:01;18.38;;;16.42;;
21593;SDS011;10959;51.328;7.322;2023-06-22T12:15:27;16.92;;;15.32;;
21593;SDS011;10959;51.328;7.322;2023-06-22T12:17:56;14.23;;;12.90;;
21593;SDS011;10959;51.328;7.322;2023-06-22T12:20:22;18.55;;;16.95;;
21593;SDS011;10959;51.328;7.322;2023-06-22T12:22:49;23.90;;;21.52;;
21593;SDS011;10959;51.328;7.322;2023-06-22T12:25:16;20.52;;;18.50;;
21593;SDS011;10959;51.328;7.322;2023-06-22T12:27:43;17.27;;;15.60;;
21593;SDS011;10959;51.328;7.322;2023-06-22T12:30:09;19.58;;;17.73;;
21593;SDS011;10959;51.328;7.322;2023-06-22T12:32:36;17.60;;;15.85;;
21593;SDS011;10959;51.328;7.322;2023-06-22T12:35:04;19.25;;;17.17;;
21593;SDS011;10959;51.328;7.322;2023-06-22T12:37:37;16.23;;;14.52;;
21593;SDS011;10959;51.328;7.322;2023-06-22T12:40:03;17.35;;;15.70;;
21593;SDS011;10959;51.328;7.322;2023-06-22T12:42:31;15.15;;;13.85;;
21593;SDS011;10959;51.328;7.322;2023-06-22T12:44:57;15.23;;;13.82;;
21593;SDS011;10959;51.328;7.322;2023-06-22T12:47:24;19.67;;;17.80;;
21593;SDS011;10959;51.328;7.322;2023-06-22T12:49:50;22.58;;;20.58;;
21593;SDS011;10959;51.328;7.322;2023-06-22T12:52:18;21.50;;;19.52;;
21593;SDS011;10959;51.328;7.322;2023-06-22T12:54:44;25.63;;;23.00;;
21593;SDS011;10959;51.328;7.322;2023-06-22T12:57:11;23.13;;;21.13;;
21593;SDS011;10959;51.328;7.322;2023-06-22T12:59:37;20.02;;;18.17;;
21593;SDS011;10959;51.328;7.322;2023-06-22T13:02:04;16.55;;;15.15;;
21593;SDS011;10959;51.328;7.322;2023-06-22T13:04:31;24.05;;;21.75;;
21593;SDS011;10959;51.328;7.322;2023-06-22T13:06:57;19.63;;;17.73;;
21593;SDS011;10959;51.328;7.322;2023-06-22T13:09:25;19.95;;;18.15;;
21593;SDS011;10959;51.328;7.322;2023-06-22T13:11:51;22.23;;;20.02;;
21593;SDS011;10959;51.328;7.322;2023-06-22T13:14:18;21.63;;;19.83;;
21593;SDS011;10959;51.328;7.322;2023-06-22T13:16:44;18.13;;;16.38;;
21593;SDS011;10959;51.328;7.322;2023-06-22T13:19:11;20.55;;;18.83;;
21593;SDS011;10959;51.328;7.322;2023-06-22T13:21:37;22.90;;;20.70;;
21593;SDS011;10959;51.328;7.322;2023-06-22T13:24:04;19.30;;;17.60;;
21593;SDS011;10959;51.328;7.322;2023-06-22T13:26:33;23.70;;;21.63;;
21593;SDS011;10959;51.328;7.322;2023-06-22T13:29:00;20.73;;;18.92;;
21593;SDS011;10959;51.328;7.322;2023-06-22T13:31:26;21.52;;;19.52;;
21593;SDS011;10959;51.328;7.322;2023-06-22T13:33:53;20.48;;;18.67;;
21593;SDS011;10959;51.328;7.322;2023-06-22T13:36:19;21.42;;;19.52;;
21593;SDS011;10959;51.328;7.322;2023-06-22T13:38:46;22.33;;;20.42;;
21593;SDS011;10959;51.328;7.322;2023-06-22T13:41:12;18.05;;;16.45;;
21593;SDS011;10959;51.328;7.322;2023-06-22T13:43:40;18.00;;;16.35;;
21593;SDS011;10959;51.328;7.322;2023-06-22T13:46:07;15.10;;;13.77;;
21593;SDS011;10959;51.328;7.322;2023-06-22T13:48:33;16.85;;;15.45;;
21593;SDS011;10959;51.328;7.322;2023-06-22T13:50:59;17.58;;;16.08;;
21593;SDS011;10959;51.328;7.322;2023-06-22T13:53:26;18.15;;;16.50;;
21593;SDS011;10959;51.328;7.322;2023-06-22T13:55:52;19.40;;;17.80;;
21593;SDS011;10959;51.328;7.322;2023-06-22T13:58:19;16.38;;;14.98;;
21593;SDS011;10959;51.328;7.322;2023-06-22T14:00:47;15.30;;;13.95;;
21593;SDS011;10959;51.328;7.322;2023-06-22T14:03:14;15.23;;;13.90;;
21593;SDS011;10959;51.328;7.322;2023-06-22T14:05:41;14.00;;;12.80;;
21593;SDS011;10959;51.328;7.322;2023-06-22T14:08:08;15.02;;;13.70;;
21593;SDS011;10959;51.328;7.322;2023-06-22T14:10:35;14.18;;;12.98;;
21593;SDS011;10959;51.328;7.322;2023-06-22T14:13:01;12.75;;;11.60;;
21593;SDS011;10959;51.328;7.322;2023-06-22T14:15:30;16.10;;;14.70;;
21593;SDS011;10959;51.328;7.322;2023-06-22T14:17:58;15.63;;;14.27;;
21593;SDS011;10959;51.328;7.322;2023-06-22T14:20:25;15.38;;;14.05;;
21593;SDS011;10959;51.328;7.322;2023-06-22T14:22:51;14.32;;;13.02;;
21593;SDS011;10959;51.328;7.322;2023-06-22T14:25:17;15.05;;;13.75;;
21593;SDS011;10959;51.328;7.322;2023-06-22T14:27:44;12.20;;;11.02;;
21593;SDS011;10959;51.328;7.322;2023-06-22T14:30:11;13.82;;;12.43;;
21593;SDS011;10959;51.328;7.322;2023-06-22T14:32:37;12.25;;;11.25;;
21593;SDS011;10959;51.328;7.322;2023-06-22T14:35:05;12.63;;;11.48;;
21593;SDS011;10959;51.328;7.322;2023-06-22T14:37:32;14.23;;;13.02;;
21593;SDS011;10959;51.328;7.322;2023-06-22T14:39:59;13.10;;;11.93;;